Logo AVAMET
Benvolgut visitant, si us plau, ingressa Recuperar contrasenya
AVAMET paisatges

Oriola San Bartolomé El Cabezol

Dades diàries. Acumulats / Últims 30 dies disponibles

Data Temperatura (°C) Humitat rel. (%) Pressió rel. (hPa) Vent (km/h) Precipitació
Mínima Mitjana Màxima Amplitud
tèrmica
Mínima Mitjana Màxima Mínima Mitjana Màxima Predom. Mitjana Ràfega
màxima
Total
(mm)
Índex-n
Mínima Mitjana Màxima Mínima Mitjana Màxima n
0 a 1
P0 max
mm 5'
Dades mensuals acumulades fins l'últim dia disponible
11/2020 7,1 12,9 18,9 17,5 18,3 21,3 27,1 20,0 42 78 97 1.005 1.022 1.031   2,8 32,2 22,1
Dades anuals acumulades fins l'últim dia disponible
2020 2,9 15,0 26,0 20,2 10,5 25,0 38,0 35,1 0 64 97 0 1.013 1.034   2,0 69,2 241,4
Últims 30 dies disponibles
30-11-2020 9,0     14,6     19,1 10,1 69 84 94 1.023 1.024 1.025 SSO 1,2 9,7 0,0
29-11-2020 11,2     15,4     19,3 8,1 56 74 90 1.013 1.018 1.021 W 1,4 12,9 0,0
28-11-2020 11,8     16,0     18,9 7,1 56 66 93 1.006 1.009 1.013 NW 4,4 17,7 0,3
27-11-2020 12,2     14,5     18,6 6,4 77 87 93 1.005 1.006 1.008 SSE 3,1 24,1 16,5
26-11-2020 12,6     17,4     20,1 7,5 57 76 90 1.011 1.013 1.016 SE 5,3 19,3 0,0
25-11-2020 8,6     14,4     18,6 10,0 63 80 90 1.016 1.017 1.020 WSW 1,5 12,9 0,0
24-11-2020 7,1     13,5     18,3 11,2 62 79 93 1.022 1.024 1.027 WSW 1,7 12,9 0,3
23-11-2020 7,2     13,2     18,9 11,7 55 74 89 1.028 1.029 1.031 SW 1,8 14,5 0,0
22-11-2020 9,3     13,7     19,4 10,1 42 72 88 1.028 1.029 1.031 W 1,1 9,7 0,0
21-11-2020 9,4     15,3     18,8 9,4 60 74 91 1.028 1.030 1.031 SE 1,9 16,1 0,0
20-11-2020 11,0     16,4     19,6 8,6 68 79 94 1.026 1.028 1.029 SSE 2,7 16,1 0,3
19-11-2020 14,1     18,2     23,0 8,9 58 80 95 1.029 1.030 1.031 SW 0,9 11,3 0,3
18-11-2020 14,8     18,8     22,3 7,5 71 82 91 1.026 1.028 1.030 W 1,9 14,5 0,0
17-11-2020 15,7     20,2     23,8 8,1 58 77 91 1.026 1.027 1.028 SSW 2,7 19,3 0,0
16-11-2020 16,2     21,4     27,1 10,9 46 68 84 1.021 1.023 1.026 NW 3,7 20,9 0,0
15-11-2020 17,4     22,2     26,1 8,7 45 63 86 1.020 1.022 1.023 WSW 3,9 12,9 0,3
14-11-2020 16,2     18,6     20,3 4,1 81 87 93 1.021 1.022 1.023 SSW 0,4 8,0 0,0
13-11-2020 15,9     19,2     23,9 8,0 52 75 89 1.020 1.022 1.023 SW 2,4 16,1 0,0
12-11-2020 11,2     16,8     21,1 9,9 55 79 94 1.022 1.023 1.025 SW 2,7 16,1 0,3
11-11-2020 11,8     17,7     21,5 9,7 59 77 95 1.024 1.026 1.028 SSW 2,0 16,1 0,3
10-11-2020 14,6     18,9     22,4 7,8 57 75 91 1.025 1.027 1.028 S 2,7 16,1 0,0
09-11-2020 12,9     16,5     23,7 10,8 55 84 96 1.022 1.023 1.024 SSW 1,3 14,5 0,3
08-11-2020 12,4     17,9     21,7 9,3 60 79 92 1.023 1.024 1.026 SW 1,9 11,3 0,0
06-11-2020 17,2     22,2     23,9 6,7 61 72 90 1.016 1.018 1.021 SE 9,0 22,5 0,0
05-11-2020 18,9     20,1     21,5 2,6 82 88 92 1.018 1.019 1.021 ESE 12,6 32,2 2,3
04-11-2020 14,6     18,7     20,5 5,9 69 77 94 1.017 1.019 1.020 ESE 4,2 19,3 0,3
03-11-2020 13,1     18,6     21,6 8,5 68 84 97 1.024 1.025 1.026 SE 1,3 14,5 0,3
02-11-2020 14,6     18,5     23,0 8,4 70 83 94 1.022 1.023 1.024 E 0,0 0,0 0,3
31-10-2020 11,7     19,4     26,7 15,0 37 67 90 1.024 1.025 1.027 W 0,5 12,9 0,0
30-10-2020 12,2     20,1     25,4 13,2 38 64 90 1.025 1.026 1.028 ESE 0,0 0,0 0,0
Últims 13 mesos disponibles
10/2020 11,5 14,4 18,4 20,7 20,3 25,2 32,5 21,0 41 59 70 1.014 1.022 1.027 W 0,2 25,7 1,7
09/2020 14,9 19,5 23,6 25,3 24,3 28,9 33,8 18,9 SE 2,2 29,0 3,4
08/2020 17,7 22,8 26,0 29,1 27,1 32,5 36,9 19,2 39 58 72 1.012 1.015 1.019 S 2,8 38,6 8,6
07/2020 19,5 21,8 23,9 27,5 28,7 31,5 38,0 18,5 56 63 73 1.014 1.016 1.019 SE 2,5 38,6 0,6
06/2020 15,6 18,6 22,2 23,8 22,4 29,0 34,7 19,1 39 55 83 1.006 1.012 1.017 SE 1,6 32,2 29,6
05/2020 12,7 15,9 18,9 21,3 21,1 26,9 33,3 20,6 44 56 74 1.007 1.018 1.027 SE 2,5 62,8 9,6
04/2020 9,3 12,5 16,7 16,6 16,6 21,2 28,3 19,0 42 69 89 1.008 1.017 1.027 SE 1,4 38,6 25,4
03/2020 8,1 10,9 15,9 15,3 11,6 20,3 30,0 21,9 36 64 92 1.009 1.018 1.027 W 2,2 69,2 85,0
02/2020 3,3 9,6 15,1 14,7 15,7 21,7 27,7 24,4 44 69 82 1.024 1.028 1.033 W 3,3 41,8 2,8
01/2020 2,9 6,6 11,2 10,9 10,5 16,9 22,3 19,4 W 0,4 32,2 51,6
12/2019 6,6 10,0 18,1 13,8 13,2 19,1 25,6 19,0 49 73 88 1.008 1.020 1.027 40,4
11/2019 6,7 11,5 18,5 15,7 15,0 20,3 28,2 21,5 41 59 94 1.003 1.012 1.021 3,2 10,6
10/2019 10,4 15,5 20,7 20,0 15,6 25,9 34,7 24,3 44 67 92 1.008 1.015 1.020 0,0 14,5 19,2
Tots els anys disponibles
2019 1,7 13,8 25,2 18,5 13,0 24,1 40,6 38,9 23 61 95 995 1.015 1.031 3,6 64,4 556,0
2018 2,2 14,2 25,6 19,1 10,6 24,1 38,3 36,1 33 66 90 992 1.014 1.032 77,0 262,0
2017 1,0 13,4 26,0 18,5 5,1 23,7 36,7 35,7 32 65 91 999 1.017 1.035 60,0 148,4
2016 3,2 15,2 24,1 20,0 11,5 24,8 41,9 38,7 29 67 93 996 1.017 1.036 52,0 223,6
2014 1,3 14,6 24,4 19,6 12,4 24,6 39,2 37,9 31 64 93 992 1.015 1.033 66,0 85,2
2013 1,2 13,5 17,7 18,5 20,6 23,4 36,7 35,5 54 63 70 1.008 1.016 1.024 77,0 173,2
2012 218,4
2011 1,2 15,0 20,2 19,6 22,1 24,2 38,3 37,1 61 68 73 64,0 186,9
2010 -0,3 15,4 19,9 20,1 23,4 24,8 42,8 43,1 73 73 73 63,0 272,6
Temperatura (°C)
Humitat relativa (%)
Velocitat del vent i ràfega màxima (km/h)
Direcció del vent (°)
Pressió (hPa)
Precipitació (mm)
Nota sobre les dades: s'avisa a l'usuari de la provisionalitat i no oficialitat d'aquestes dades
Logo AVAMET blanc
Web allotjada a Sollutia
Llicència de Creative CommonsLa web d'AVAMET i els seus continguts estan subjectes a una llicència de
Reconeixement - No Comercial - Compartir igual
Avís legal - Política de privacitat - Política de cookies
NOVES ESTACIONS: València - l'Olivereta (Soci), Xixona - Carrasqueta/Bugaia (Soci), l'Alcúdia de Crespins/Canals - la Muntanyeta (Soci), Utiel - est (Soci), Xàbia - Cansalades (Soci), Alginet (Soci), Quatretondeta (Ajuntament Soci) Enguera - Benali (Soci/ADENE), la Vall d'Alba - sud (Ajuntament Soci), El Fondó dels Frares (Estació pròpia d'AVAMET nº34) - - -